createdAt,value
2023-08-17T18:45:52.985Z,19.85
2023-08-17T18:48:25.779Z,19.40
2023-08-17T19:20:14.085Z,18.23
2023-08-17T19:22:45.805Z,17.97
2023-08-17T19:25:17.218Z,17.77
2023-08-17T19:27:48.603Z,16.93
2023-08-17T19:30:21.313Z,18.30
2023-08-17T19:33:00.884Z,18.40
2023-08-17T19:35:35.854Z,17.63
2023-08-17T19:38:07.725Z,16.70
2023-08-17T19:40:39.854Z,17.30
2023-08-17T19:43:11.635Z,17.53
2023-08-17T19:45:46.752Z,18.07
2023-08-17T19:48:18.240Z,17.10
2023-08-17T19:50:55.936Z,17.87
2023-08-17T19:53:26.731Z,17.33
2023-08-17T19:56:01.449Z,16.23
2023-08-17T19:58:35.097Z,17.60
2023-08-17T20:01:09.835Z,16.30
2023-08-17T20:03:41.219Z,15.90
2023-08-17T20:06:14.847Z,14.80
2023-08-17T20:08:44.900Z,14.47
2023-08-17T20:11:17.281Z,14.13
2023-08-17T20:13:47.531Z,14.00
2023-08-17T20:16:19.055Z,14.10
2023-08-17T20:18:50.834Z,14.33
2023-08-17T20:21:24.406Z,13.40
2023-08-17T20:23:55.295Z,13.27
2023-08-17T20:26:26.437Z,14.20
2023-08-17T20:28:57.402Z,13.60
2023-08-17T20:31:28.296Z,13.10
2023-08-17T20:33:59.739Z,13.10
2023-08-17T20:36:33.810Z,12.70
2023-08-17T20:39:16.796Z,13.70
2023-08-17T20:41:47.344Z,12.33
2023-08-17T20:44:19.185Z,13.73
2023-08-17T20:46:51.349Z,13.70
2023-08-17T20:49:22.086Z,14.20
2023-08-17T20:51:55.602Z,13.73
2023-08-17T20:54:25.484Z,13.50
2023-08-17T20:56:56.030Z,14.40
2023-08-17T20:59:29.273Z,12.73
2023-08-17T21:02:00.226Z,12.90
2023-08-17T21:04:31.128Z,13.70
2023-08-17T21:07:04.591Z,13.13
2023-08-17T21:09:35.181Z,12.87
2023-08-17T21:12:05.665Z,13.87
2023-08-17T21:14:36.638Z,13.10
2023-08-17T21:17:07.531Z,13.33
2023-08-17T21:19:38.435Z,13.83
2023-08-17T21:22:11.952Z,13.00
2023-08-17T21:24:41.805Z,14.50
2023-08-17T21:27:14.264Z,14.50
2023-08-17T21:29:45.196Z,14.63
2023-08-17T21:32:16.096Z,15.90
2023-08-17T21:34:49.070Z,15.67
2023-08-17T21:37:31.100Z,15.37
2023-08-17T21:40:01.236Z,15.67
2023-08-17T21:42:32.122Z,17.13
2023-08-17T21:45:03.120Z,17.60
2023-08-17T21:47:34.062Z,16.87
2023-08-17T21:52:27.620Z,15.57
2023-08-17T21:54:58.526Z,16.47
2023-08-17T21:57:29.647Z,17.37
2023-08-17T22:00:00.962Z,16.33
2023-08-17T22:02:33.042Z,15.80
2023-08-17T22:05:09.905Z,15.10
2023-08-17T22:07:43.420Z,14.60
2023-08-17T22:10:14.937Z,17.77
2023-08-17T22:12:47.772Z,14.50
2023-08-17T22:15:18.222Z,15.70
2023-08-17T22:17:49.100Z,16.00
2023-08-17T22:20:20.512Z,16.40
2023-08-17T22:22:54.034Z,14.73
2023-08-17T22:25:23.945Z,14.63
2023-08-17T22:27:54.861Z,14.50
2023-08-17T22:30:25.798Z,13.70
2023-08-17T22:32:56.848Z,14.30
2023-08-17T22:35:27.907Z,15.63
2023-08-17T22:38:01.367Z,15.17
2023-08-17T22:40:32.223Z,16.30
2023-08-17T22:43:03.201Z,16.50
2023-08-17T22:45:34.223Z,16.30
2023-08-17T22:48:05.257Z,16.80
2023-08-17T22:50:36.146Z,17.20
2023-08-17T22:53:09.710Z,16.57
2023-08-17T22:55:39.610Z,17.97
2023-08-17T22:58:10.633Z,16.10
2023-08-17T23:00:42.347Z,16.63
2023-08-17T23:03:13.336Z,17.93
2023-08-17T23:05:44.246Z,18.70
2023-08-17T23:08:17.748Z,16.53
2023-08-17T23:10:47.728Z,18.10
2023-08-17T23:13:18.626Z,17.80
2023-08-17T23:15:50.408Z,18.00
2023-08-17T23:18:21.751Z,18.43
2023-08-17T23:20:52.694Z,17.93
2023-08-17T23:23:26.185Z,15.97
2023-08-17T23:25:56.850Z,17.90
2023-08-17T23:28:27.133Z,18.20
2023-08-17T23:31:02.671Z,18.63
2023-08-17T23:33:33.774Z,17.23
2023-08-17T23:36:08.185Z,17.97
2023-08-17T23:38:41.037Z,18.17
2023-08-17T23:41:10.987Z,18.50
2023-08-17T23:43:40.828Z,18.57
2023-08-17T23:46:10.812Z,17.50
2023-08-17T23:48:41.771Z,19.17
2023-08-17T23:51:12.848Z,19.10
2023-08-17T23:53:46.382Z,19.07
2023-08-17T23:56:16.264Z,20.00
2023-08-17T23:58:49.774Z,20.07
